Time;durP1;ratioP1;P1;durP2;ratioP2;P2;SDS_P1;SDS_P2;PMS_P1;PMS_P2;Temp;Humidity;BMP_temperature;BMP_pressure;BME280_temperature;BME280_humidity;BME280_pressure;Samples;Min_cycle;Max_cycle;Signal;HPM_P1;HPM_P2
2022/09/01 00:02:07;;;;;;;6.22;4.10;;;;;;;16.67;78.09;94665.23;1582695;88;21320;-55
2022/09/01 00:04:38;;;;;;;9.93;3.67;;;;;;;16.68;78.49;94668.92;1561431;90;21049;-56
2022/09/01 00:07:06;;;;;;;4.62;3.50;;;;;;;16.70;78.41;94667.06;1593596;89;21126;-56
2022/09/01 00:09:34;;;;;;;8.98;3.50;;;;;;;16.68;78.31;94660.59;1587113;88;21076;-55
2022/09/01 00:12:03;;;;;;;8.25;4.00;;;;;;;16.70;78.31;94660.11;1573766;90;21044;-56
2022/09/01 00:14:32;;;;;;;7.53;4.53;;;;;;;16.73;77.85;94660.52;1574377;89;21185;-55
2022/09/01 00:17:03;;;;;;;12.65;4.33;;;;;;;16.73;77.86;94659.13;1580925;89;21052;-56
2022/09/01 00:19:32;;;;;;;9.30;4.00;;;;;;;16.73;78.20;94657.74;1572415;89;21011;-55
2022/09/01 00:22:00;;;;;;;10.35;4.53;;;;;;;16.70;78.36;94660.11;1580549;90;21032;-55
2022/09/01 00:24:28;;;;;;;14.65;5.15;;;;;;;16.70;78.23;94660.11;1592055;90;21493;-55
2022/09/01 00:26:55;;;;;;;14.13;7.28;;;;;;;16.69;78.15;94661.37;1595035;90;22183;-54
2022/09/01 00:29:23;;;;;;;19.48;8.93;;;;;;;16.68;78.20;94658.42;1580993;89;21093;-55
2022/09/01 00:31:52;;;;;;;22.48;9.63;;;;;;;16.67;78.47;94662.45;1585491;89;21127;-55
2022/09/01 00:34:21;;;;;;;15.10;6.80;;;;;;;16.66;78.64;94656.77;1574211;89;21050;-55
2022/09/01 00:36:49;;;;;;;13.48;6.78;;;;;;;16.68;78.55;94654.26;1588168;90;21576;-55
2022/09/01 00:39:17;;;;;;;15.80;6.30;;;;;;;16.68;78.13;94660.59;1574250;89;21256;-56
2022/09/01 00:41:46;;;;;;;13.62;6.10;;;;;;;16.70;77.65;94654.56;1588061;90;21058;-56
2022/09/01 00:44:17;;;;;;;9.43;4.97;;;;;;;16.71;77.51;94661.00;1589857;90;21049;-56
2022/09/01 00:46:50;;;;;;;8.50;4.10;;;;;;;16.68;77.26;94661.98;1588737;90;21026;-55
2022/09/01 00:49:30;;;;;;;;;;;;;;;16.63;77.47;94660.52;1585839;89;21013;-55
2022/09/01 00:52:05;;;;;;;9.75;4.12;;;;;;;16.58;77.51;94656.42;1591938;88;21246;-55
2022/09/01 00:54:39;;;;;;;13.68;6.90;;;;;;;16.56;77.63;94652.63;1587825;90;21455;-56
2022/09/01 00:57:07;;;;;;;15.65;7.47;;;;;;;16.53;77.53;94653.60;1579032;89;21099;-55
2022/09/01 00:59:35;;;;;;;13.10;6.95;;;;;;;16.47;77.67;94649.37;1558638;90;21575;-55
2022/09/01 01:02:03;;;;;;;18.65;6.95;;;;;;;16.44;78.07;94650.95;1558669;89;21049;-55
2022/09/01 01:04:31;;;;;;;10.50;5.80;;;;;;;16.41;78.63;94649.16;1569394;89;21242;-55
2022/09/01 01:07:02;;;;;;;12.68;5.28;;;;;;;16.37;79.03;94647.97;1577105;89;21485;-56
2022/09/01 01:09:34;;;;;;;7.15;4.55;;;;;;;16.37;79.28;94650.00;1591755;88;20994;-55
2022/09/01 01:12:03;;;;;;;10.50;4.12;;;;;;;16.38;79.47;94647.36;1586086;90;21607;-56
2022/09/01 01:14:30;;;;;;;9.05;4.10;;;;;;;16.36;79.66;94647.84;1575598;89;21106;-56
2022/09/01 01:17:00;;;;;;;8.05;5.00;;;;;;;16.36;79.64;94647.84;1564982;90;21068;-55
2022/09/01 01:23:07;;;;;;;13.13;5.08;;;;;;;16.31;79.28;94644.95;1570851;89;21045;-55
2022/09/01 01:25:43;;;;;;;7.20;4.42;;;;;;;16.29;79.12;94640.52;1570963;89;21059;-55
2022/09/01 01:28:25;;;;;;;8.30;3.75;;;;;;;16.32;79.42;94636.77;1581936;89;21062;-56
2022/09/01 01:31:00;;;;;;;6.85;4.37;;;;;;;16.32;79.65;94643.70;1582968;89;21847;-55
2022/09/01 01:33:31;;;;;;;6.12;3.85;;;;;;;16.31;79.93;94649.13;1578559;90;21105;-56
2022/09/01 01:36:00;;;;;;;9.15;4.85;;;;;;;16.28;80.50;94650.09;1579763;89;21477;-55
2022/09/01 01:38:29;;;;;;;6.10;3.85;;;;;;;16.28;80.47;94644.55;1586161;90;21044;-55
2022/09/01 01:40:57;;;;;;;6.35;3.27;;;;;;;16.28;80.51;94645.93;1578630;89;21619;-55
2022/09/01 01:43:27;;;;;;;5.75;3.10;;;;;;;16.26;80.52;94648.43;1577732;90;21249;-55
2022/09/01 01:46:01;;;;;;;5.92;3.27;;;;;;;16.25;80.70;94652.45;1587714;90;21077;-55
2022/09/01 01:48:28;;;;;;;10.87;5.80;;;;;;;16.24;80.54;94641.86;1580167;89;21104;-55
2022/09/01 01:50:58;;;;;;;7.72;3.90;;;;;;;16.23;80.55;94636.92;1581120;89;21470;-55
2022/09/01 01:53:25;;;;;;;8.28;3.05;;;;;;;16.19;80.90;94617.55;1588566;88;21050;-56
2022/09/01 01:55:54;;;;;;;6.90;4.30;;;;;;;16.19;81.23;94621.70;1590380;90;21142;-55
2022/09/01 01:58:24;;;;;;;13.05;4.35;;;;;;;16.16;81.52;94623.46;1582864;89;21591;-56
2022/09/01 02:00:53;;;;;;;9.05;4.20;;;;;;;16.17;81.86;94622.83;1576507;89;21062;-56
2022/09/01 02:03:24;;;;;;;8.63;5.03;;;;;;;16.17;82.02;94620.83;1582333;89;21032;-55
2022/09/01 02:05:52;;;;;;;10.43;5.60;;;;;;;16.17;81.82;94612.50;1557812;89;21202;-55
2022/09/01 02:08:24;;;;;;;10.78;5.20;;;;;;;16.17;81.96;94612.50;1591615;90;21334;-55
2022/09/01 02:10:54;;;;;;;13.43;5.72;;;;;;;16.19;82.12;94616.94;1583528;89;21049;-55
2022/09/01 02:13:29;;;;;;;16.10;6.60;;;;;;;16.19;82.17;94613.38;1581817;89;21101;-56
2022/09/01 02:15:56;;;;;;;11.05;4.90;;;;;;;16.16;82.23;94611.59;1579715;88;21040;-56
2022/09/01 02:18:29;;;;;;;8.10;4.25;;;;;;;16.14;82.38;94613.48;1589846;90;21497;-55
2022/09/01 02:20:59;;;;;;;6.42;4.30;;;;;;;16.16;82.43;94612.36;1580540;89;21401;-56
2022/09/01 02:23:30;;;;;;;6.72;3.85;;;;;;;16.18;82.46;94613.25;1583611;90;21082;-56
2022/09/01 02:26:01;;;;;;;3.87;3.37;;;;;;;16.20;82.40;94612.13;1571771;89;21112;-55
2022/09/01 02:28:30;;;;;;;10.50;4.58;;;;;;;16.19;82.20;94612.00;1571664;89;21142;-55
2022/09/01 02:31:01;;;;;;;5.42;4.20;;;;;;;16.14;81.81;94609.31;1561129;90;21076;-56
2022/09/01 02:33:31;;;;;;;7.53;4.05;;;;;;;16.11;81.36;94609.51;1561708;90;21187;-55
2022/09/01 02:36:05;;;;;;;10.63;6.17;;;;;;;16.11;81.13;94610.90;1593518;90;21517;-55
2022/09/01 02:38:34;;;;;;;12.70;5.90;;;;;;;16.12;81.04;94610.39;1561280;91;21468;-54
2022/09/01 02:41:02;;;;;;;10.32;6.20;;;;;;;16.14;80.87;94616.25;1573508;89;21022;-55
2022/09/01 02:43:30;;;;;;;9.00;5.28;;;;;;;16.17;80.51;94611.11;1580342;90;21114;-55
2022/09/01 02:46:00;;;;;;;8.53;5.58;;;;;;;16.17;80.33;94611.11;1580942;89;21925;-56
2022/09/01 02:48:36;;;;;;;9.15;4.72;;;;;;;16.15;80.58;94615.00;1592566;90;21060;-56
2022/09/01 02:51:08;;;;;;;10.23;4.30;;;;;;;16.12;80.69;94610.39;1587654;88;21119;-55
2022/09/01 02:53:38;;;;;;;8.13;4.70;;;;;;;16.11;80.76;94611.64;1593617;89;21033;-55
2022/09/01 02:56:10;;;;;;;16.90;6.67;;;;;;;16.14;80.69;94612.09;1545486;91;21501;-55
2022/09/01 02:58:44;;;;;;;23.40;9.50;;;;;;;16.17;80.51;94606.95;1566101;91;21264;-55
2022/09/01 03:01:09;;;;;;;27.73;11.78;;;;;;;16.20;80.43;94610.13;1557640;91;21023;-56
2022/09/01 03:03:37;;;;;;;26.12;11.08;;;;;;;16.21;80.49;94613.05;1571562;91;21047;-55
2022/09/01 03:06:08;;;;;;;12.78;5.50;;;;;;;16.21;80.58;94612.27;1567512;91;21214;-56
2022/09/01 03:08:38;;;;;;;8.00;4.95;;;;;;;16.17;80.93;94600.01;1559150;91;21049;-55
2022/09/01 03:11:10;;;;;;;8.25;4.37;;;;;;;16.18;81.52;94611.86;1555695;91;21950;-55
2022/09/01 03:13:38;;;;;;;7.85;3.83;;;;;;;16.15;81.88;94615.00;1548359;91;21126;-56
2022/09/01 03:16:07;;;;;;;6.40;3.67;;;;;;;16.11;82.37;94609.51;1548250;91;21126;-56
2022/09/01 03:18:35;;;;;;;8.78;3.75;;;;;;;16.09;82.32;94604.44;1529961;91;21214;-56
2022/09/01 03:21:05;;;;;;;8.83;4.20;;;;;;;16.08;82.45;94601.52;1561319;89;21077;-56
2022/09/01 03:23:33;;;;;;;8.13;3.90;;;;;;;16.08;82.19;94610.48;1555489;91;21179;-56
2022/09/01 03:26:01;;;;;;;16.42;4.12;;;;;;;16.05;82.08;94608.66;1560031;91;21173;-56
2022/09/01 03:28:30;;;;;;;6.12;3.60;;;;;;;16.00;82.28;94612.91;1548617;91;21551;-56
2022/09/01 03:30:59;;;;;;;12.55;4.30;;;;;;;15.99;82.63;94606.45;1525343;91;21122;-55
2022/09/01 03:33:29;;;;;;;8.25;4.25;;;;;;;16.01;82.43;94606.72;1554770;91;21176;-55
2022/09/01 03:35:57;;;;;;;7.90;4.53;;;;;;;16.02;82.56;94606.25;1567427;91;21298;-57
2022/09/01 03:38:25;;;;;;;7.45;3.70;;;;;;;16.06;82.48;94606.05;1552829;91;21563;-55
2022/09/01 03:41:00;;;;;;;9.98;5.47;;;;;;;16.07;82.44;94601.38;1549699;91;21063;-54
2022/09/01 03:43:26;;;;;;;16.73;8.85;;;;;;;16.07;82.51;94597.22;1547062;91;21119;-55
2022/09/01 03:45:59;;;;;;;25.37;10.35;;;;;;;16.11;82.45;94597.02;1554710;91;21487;-55
2022/09/01 03:48:27;;;;;;;5.72;4.37;;;;;;;16.14;82.35;94594.66;1540103;91;21811;-56
2022/09/01 03:50:57;;;;;;;5.65;4.30;;;;;;;16.09;81.87;94600.27;1559387;91;21016;-55
2022/09/01 03:53:26;;;;;;;10.95;4.15;;;;;;;16.03;81.69;94610.55;1554557;91;21585;-55
2022/09/01 03:55:56;;;;;;;6.20;3.52;;;;;;;15.99;81.85;94617.55;1562734;91;21565;-55
2022/09/01 03:58:23;;;;;;;6.28;3.80;;;;;;;15.97;82.05;94622.20;1560062;91;21070;-56
2022/09/01 04:00:54;;;;;;;11.75;4.05;;;;;;;15.96;82.31;94619.30;1535685;92;21288;-56
2022/09/01 04:03:23;;;;;;;7.37;4.08;;;;;;;15.94;83.04;94620.37;1565540;91;21095;-57
2022/09/01 04:05:52;;;;;;;6.92;4.78;;;;;;;15.93;83.63;94613.30;1559502;91;21084;-56
2022/09/01 04:08:25;;;;;;;6.53;3.87;;;;;;;15.97;83.70;94623.59;1558183;91;21616;-55
2022/09/01 04:10:52;;;;;;;7.33;3.70;;;;;;;15.97;83.52;94619.44;1568104;89;21006;-55
2022/09/01 04:13:26;;;;;;;5.20;3.62;;;;;;;15.93;83.20;94617.47;1567566;89;22035;-56
2022/09/01 04:15:55;;;;;;;5.33;3.85;;;;;;;15.90;83.46;94616.30;1593468;88;21045;-56
2022/09/01 04:18:25;;;;;;;6.22;3.70;;;;;;;15.87;83.65;94627.73;1534180;92;21013;-56
2022/09/01 04:20:56;;;;;;;6.25;3.65;;;;;;;15.85;84.03;94619.75;1547295;92;21203;-56
2022/09/01 04:23:28;;;;;;;12.77;3.83;;;;;;;15.82;84.31;94617.94;1542906;91;21548;-55
2022/09/01 04:26:07;;;;;;;6.47;3.95;;;;;;;15.76;84.64;94622.02;1541220;92;21163;-56
2022/09/01 04:28:37;;;;;;;8.70;4.03;;;;;;;15.69;85.29;94616.14;1542437;92;21074;-55
2022/09/01 04:31:08;;;;;;;8.03;4.53;;;;;;;15.66;85.90;94617.86;1540830;91;21158;-58
2022/09/01 04:33:38;;;;;;;8.28;4.75;;;;;;;15.59;86.08;94611.34;1553517;92;21603;-54
2022/09/01 04:36:24;;;;;;;8.00;4.50;;;;;;;15.55;86.69;94616.30;1548632;91;21080;-56
2022/09/01 04:38:56;;;;;;;11.75;5.90;;;;;;;15.53;87.03;94617.41;1547311;91;21218;-55
2022/09/01 04:41:30;;;;;;;13.40;7.67;;;;;;;15.52;87.43;94621.42;1523477;92;21012;-55
2022/09/01 04:44:05;;;;;;;8.73;4.20;;;;;;;15.51;87.57;94625.45;1562592;91;21046;-56
2022/09/01 04:46:34;;;;;;;10.58;4.10;;;;;;;15.51;87.77;94617.77;1543255;91;21076;-55
2022/09/01 04:49:08;;;;;;;4.87;3.67;;;;;;;15.50;87.86;94612.83;1542724;91;21022;-57
2022/09/01 04:51:34;;;;;;;4.28;3.35;;;;;;;15.50;87.61;94616.98;1535591;91;21190;-59
2022/09/01 04:54:02;;;;;;;7.78;4.53;;;;;;;15.53;87.51;94615.27;1557574;91;21077;-56
2022/09/01 04:56:35;;;;;;;9.13;3.98;;;;;;;15.51;87.48;94615.74;1570873;90;21599;-55
2022/09/01 04:59:05;;;;;;;7.72;4.15;;;;;;;15.49;87.53;94611.91;1564098;90;21097;-55
2022/09/01 05:01:34;;;;;;;11.83;4.45;;;;;;;15.47;87.89;94606.86;1573397;89;21158;-56
2022/09/01 05:04:02;;;;;;;11.57;4.58;;;;;;;15.50;87.90;94605.90;1573226;90;21349;-55
2022/09/01 05:06:40;;;;;;;10.48;3.90;;;;;;;15.53;88.13;94601.41;1552203;91;21117;-55
2022/09/01 05:09:10;;;;;;;7.35;3.98;;;;;;;15.57;88.26;94604.09;1562862;90;21071;-53
2022/09/01 05:11:49;;;;;;;8.83;4.50;;;;;;;15.65;88.23;94603.85;1564237;90;21133;-55
2022/09/01 05:14:25;;;;;;;7.70;4.47;;;;;;;15.71;88.09;94602.55;1580923;89;21532;-54
2022/09/01 05:16:58;;;;;;;10.25;4.35;;;;;;;15.73;87.79;94602.83;1589332;89;21191;-55
2022/09/01 05:19:28;;;;;;;8.20;4.37;;;;;;;15.74;87.58;94594.64;1583113;90;21044;-54
2022/09/01 05:21:58;;;;;;;11.90;5.45;;;;;;;15.79;87.38;94597.50;1583105;89;21608;-56
2022/09/01 05:24:29;;;;;;;10.15;6.12;;;;;;;15.86;87.06;94598.47;1589563;89;21060;-54
2022/09/01 05:26:59;;;;;;;14.58;6.95;;;;;;;15.94;86.66;94592.62;1587030;89;21726;-55
2022/09/01 05:29:28;;;;;;;7.45;4.40;;;;;;;16.01;86.23;94605.33;1568964;89;21842;-54
2022/09/01 05:31:57;;;;;;;9.30;4.08;;;;;;;16.06;86.04;94592.17;1582550;88;21496;-54
2022/09/01 05:34:26;;;;;;;7.12;3.80;;;;;;;16.10;85.93;94599.02;1587446;89;21116;-54
2022/09/01 05:36:58;;;;;;;6.17;3.95;;;;;;;16.10;85.88;94599.02;1586632;90;21110;-55
2022/09/01 05:39:26;;;;;;;6.75;4.30;;;;;;;16.04;85.79;94596.81;1587747;89;21103;-55
2022/09/01 05:41:56;;;;;;;11.88;4.35;;;;;;;16.01;86.21;94597.78;1587228;88;21585;-56
2022/09/01 05:44:25;;;;;;;7.08;5.08;;;;;;;15.99;86.13;94599.51;1584408;89;21080;-56
2022/09/01 05:46:58;;;;;;;11.85;3.83;;;;;;;15.94;86.14;94596.80;1582158;90;21035;-55
2022/09/01 05:49:31;;;;;;;8.15;4.15;;;;;;;15.89;86.43;94595.36;1543669;90;21495;-55
2022/09/01 05:51:57;;;;;;;6.45;4.10;;;;;;;15.86;86.68;94599.08;1578445;89;21052;-54
2022/09/01 05:54:27;;;;;;;6.58;4.12;;;;;;;15.86;87.17;94597.08;1577479;89;21948;-54
2022/09/01 05:56:57;;;;;;;13.53;4.97;;;;;;;15.90;87.09;94594.86;1543209;89;21210;-55
2022/09/01 05:59:30;;;;;;;9.08;4.60;;;;;;;15.93;86.83;94596.66;1555306;90;21167;-54
2022/09/01 06:02:02;;;;;;;8.43;4.47;;;;;;;15.95;86.75;94599.70;1548121;90;21154;-55
2022/09/01 06:04:31;;;;;;;16.70;8.90;;;;;;;15.96;86.52;94592.94;1539794;90;21077;-61
2022/09/01 06:07:08;;;;;;;6.37;4.55;;;;;;;15.93;86.37;94598.68;1542924;91;21759;-54
2022/09/01 06:09:32;;;;;;;7.17;4.20;;;;;;;15.93;86.41;94599.43;1567245;90;21103;-57
2022/09/01 06:12:01;;;;;;;7.83;4.70;;;;;;;15.92;86.34;94597.91;1558217;89;21159;-54
2022/09/01 06:14:29;;;;;;;7.92;4.45;;;;;;;15.92;86.43;94588.20;1557136;90;21263;-54
2022/09/01 06:16:57;;;;;;;8.25;4.12;;;;;;;15.92;86.48;94600.68;1555371;90;21140;-55
2022/09/01 06:19:27;;;;;;;6.42;4.03;;;;;;;15.92;86.58;94609.00;1560953;90;21206;-53
2022/09/01 06:21:55;;;;;;;8.70;4.97;;;;;;;15.89;86.33;94608.59;1605628;88;21121;-55
2022/09/01 06:24:24;;;;;;;8.23;4.90;;;;;;;15.85;86.24;94601.10;1610083;87;21073;-56
2022/09/01 06:26:53;;;;;;;9.98;4.72;;;;;;;15.85;86.41;94609.42;1595571;87;21101;-53
2022/09/01 06:29:21;;;;;;;7.30;4.62;;;;;;;15.85;86.42;94600.33;1559355;89;21216;-54
2022/09/01 06:31:51;;;;;;;11.20;4.95;;;;;;;15.83;86.48;94600.83;1536909;90;21262;-56
2022/09/01 06:34:19;;;;;;;14.30;6.55;;;;;;;15.83;86.21;94616.09;1584065;89;21033;-57
2022/09/01 06:36:48;;;;;;;7.10;4.75;;;;;;;15.85;85.95;94610.03;1577188;89;21229;-55
2022/09/01 06:39:19;;;;;;;8.13;4.78;;;;;;;15.84;85.73;94619.61;1591367;89;21115;-54
2022/09/01 06:41:51;;;;;;;6.00;4.80;;;;;;;15.83;85.32;94616.70;1554683;90;21110;-55
2022/09/01 06:44:22;;;;;;;26.87;16.15;;;;;;;15.86;84.82;94624.82;1529349;90;21225;-57
2022/09/01 06:46:52;;;;;;;11.08;7.45;;;;;;;15.87;84.24;94631.90;1573558;90;21557;-55
2022/09/01 06:49:22;;;;;;;15.78;6.90;;;;;;;15.86;83.96;94634.53;1553629;90;21055;-57
2022/09/01 06:51:51;;;;;;;14.00;6.25;;;;;;;15.86;84.32;94639.30;1506736;91;21133;-56
2022/09/01 06:54:23;;;;;;;12.82;7.20;;;;;;;15.88;85.23;94641.75;1561397;90;21129;-58
2022/09/01 06:56:52;;;;;;;10.88;5.90;;;;;;;15.90;85.87;94636.47;1573636;89;21222;-57
2022/09/01 06:59:20;;;;;;;9.60;5.15;;;;;;;15.92;86.35;94642.30;1571445;90;22107;-56
2022/09/01 07:01:53;;;;;;;5.85;4.75;;;;;;;15.99;86.70;94646.07;1586157;90;21085;-57
2022/09/01 07:04:20;;;;;;;15.60;5.72;;;;;;;16.03;87.05;94650.01;1584186;90;21117;-57
2022/09/01 07:06:53;;;;;;;7.80;4.47;;;;;;;16.08;86.61;94654.89;1555033;90;21137;-55
2022/09/01 07:09:23;;;;;;;8.08;4.83;;;;;;;16.09;86.38;94659.94;1563983;90;21464;-54
2022/09/01 07:12:01;;;;;;;8.43;4.37;;;;;;;16.05;86.63;94658.00;1565190;90;21108;-57
2022/09/01 07:14:29;;;;;;;6.72;4.28;;;;;;;16.01;87.01;94659.45;1546146;90;21070;-58
2022/09/01 07:16:57;;;;;;;9.75;5.85;;;;;;;16.02;87.28;94667.30;1554998;91;21174;-59
2022/09/01 07:19:25;;;;;;;10.93;5.17;;;;;;;16.07;86.97;94665.86;1547454;91;21121;-56
2022/09/01 07:21:54;;;;;;;8.83;5.45;;;;;;;16.12;86.45;94668.69;1572919;90;21270;-56
2022/09/01 07:24:24;;;;;;;10.75;5.00;;;;;;;16.12;86.67;94667.30;1580670;88;21119;-56
2022/09/01 07:27:11;;;;;;;10.05;6.03;;;;;;;16.12;87.26;94668.69;1565194;90;21112;-56
2022/09/01 07:29:39;;;;;;;7.22;4.53;;;;;;;16.15;87.96;94660.80;1555746;91;21192;-56
2022/09/01 07:32:09;;;;;;;10.53;4.15;;;;;;;16.16;88.23;94660.94;1536836;91;21158;-55
2022/09/01 07:34:38;;;;;;;7.03;4.65;;;;;;;16.14;88.44;94660.66;1553857;91;21187;-57
2022/09/01 07:37:06;;;;;;;6.10;4.22;;;;;;;16.11;88.50;94653.92;1512912;93;21088;-55
2022/09/01 07:39:35;;;;;;;13.03;5.17;;;;;;;16.10;88.42;94649.62;1564901;90;22323;-59
2022/09/01 07:42:10;;;;;;;6.55;4.42;;;;;;;16.10;88.74;94647.59;1575805;90;21127;-56
2022/09/01 07:44:57;;;;;;;10.73;5.20;;;;;;;16.16;88.42;94647.67;1566896;90;21145;-54
2022/09/01 07:47:43;;;;;;;11.38;5.42;;;;;;;16.18;87.65;94650.11;1564592;89;21182;-55
2022/09/01 07:50:14;;;;;;;8.20;5.37;;;;;;;16.21;87.75;94642.20;1514715;91;21604;-58
2022/09/01 07:52:42;;;;;;;10.90;5.58;;;;;;;16.26;87.24;94653.98;1521584;91;21576;-59
2022/09/01 07:55:12;;;;;;;12.45;5.90;;;;;;;16.30;87.05;94660.86;1558227;90;21098;-61
2022/09/01 07:57:41;;;;;;;7.62;4.90;;;;;;;16.35;86.31;94658.05;1535847;89;21172;-55
2022/09/01 08:00:12;;;;;;;9.83;7.33;;;;;;;16.39;85.98;94664.16;1531138;91;21344;-57
2022/09/01 08:02:42;;;;;;;10.50;5.42;;;;;;;16.35;84.97;94662.97;1575025;89;21635;-57
2022/09/01 08:05:14;;;;;;;10.03;5.08;;;;;;;16.31;84.64;94660.22;1563492;89;22086;-55
2022/09/01 08:07:42;;;;;;;11.88;5.17;;;;;;;16.29;84.61;94667.67;1575569;89;21158;-54
2022/09/01 08:10:10;;;;;;;6.55;4.12;;;;;;;16.29;84.72;94675.22;1535397;90;21214;-56
2022/09/01 08:12:39;;;;;;;5.47;4.28;;;;;;;16.31;84.04;94674.88;1540267;90;22443;-56
2022/09/01 08:15:08;;;;;;;10.15;5.40;;;;;;;16.34;83.73;94676.71;1539964;90;21099;-56
2022/09/01 08:17:36;;;;;;;5.78;4.53;;;;;;;16.37;83.23;94676.38;1599071;86;21203;-56
2022/09/01 08:20:08;;;;;;;5.95;4.45;;;;;;;16.40;83.03;94672.63;1608257;87;21567;-55
2022/09/01 08:22:53;;;;;;;6.97;4.03;;;;;;;16.40;83.09;94674.02;1546249;91;21189;-58
2022/09/01 08:25:24;;;;;;;6.12;4.75;;;;;;;16.36;82.98;94666.52;1550051;90;21309;-55
2022/09/01 08:27:54;;;;;;;9.08;5.15;;;;;;;16.33;83.35;94666.08;1555778;89;21576;-56
2022/09/01 08:30:22;;;;;;;7.65;4.72;;;;;;;16.31;83.00;94669.94;1560577;90;21170;-55
2022/09/01 08:32:50;;;;;;;9.60;5.50;;;;;;;16.29;83.03;94666.89;1563481;90;21220;-57
2022/09/01 08:35:18;;;;;;;7.55;4.75;;;;;;;16.27;82.98;94661.06;1562998;90;21092;-55
2022/09/01 08:37:46;;;;;;;9.20;4.55;;;;;;;16.24;83.00;94671.01;1548274;89;21246;-56
2022/09/01 08:40:17;;;;;;;6.33;4.45;;;;;;;16.24;83.04;94678.70;1559091;90;21632;-56
2022/09/01 08:43:25;;;;;;;4.65;4.00;;;;;;;16.22;82.83;94673.48;1575870;89;21529;-58
2022/09/01 08:45:56;;;;;;;7.25;4.10;;;;;;;16.19;82.62;94673.06;1570199;89;21200;-55
2022/09/01 08:48:37;;;;;;;6.12;4.35;;;;;;;16.14;82.22;94680.09;1570794;90;21139;-55
2022/09/01 08:51:18;;;;;;;4.95;4.28;;;;;;;16.12;82.12;94681.81;1554843;89;21384;-54
2022/09/01 08:54:35;;;;;;;8.38;4.70;;;;;;;16.13;81.87;94684.09;1538854;91;21561;-58
2022/09/01 08:57:11;;;;;;;8.40;4.95;;;;;;;16.14;80.86;94681.48;1563668;89;21190;-55
2022/09/01 08:59:58;;;;;;;7.08;4.55;;;;;;;16.09;80.64;94682.14;1563577;90;21665;-57
2022/09/01 09:02:58;;;;;;;5.87;4.70;;;;;;;16.09;80.77;94682.14;1561709;89;21625;-55
2022/09/01 09:05:51;;;;;;;7.45;5.08;;;;;;;16.09;81.00;94681.40;1547048;89;21348;-57
2022/09/01 09:08:56;;;;;;;9.90;4.30;;;;;;;16.09;81.06;94676.59;1587454;89;21090;-56
2022/09/01 09:11:35;;;;;;;6.22;4.22;;;;;;;16.15;80.72;94677.45;1585527;89;21429;-54
2022/09/01 09:14:10;;;;;;;7.83;4.20;;;;;;;16.22;80.04;94679.81;1573913;88;21091;-56
2022/09/01 09:16:47;;;;;;;8.03;4.85;;;;;;;16.23;79.79;94678.56;1572737;90;21474;-57
2022/09/01 09:19:34;;;;;;;6.22;4.20;;;;;;;16.25;79.74;94669.76;1548559;91;21377;-54
2022/09/01 09:22:05;;;;;;;6.53;4.45;;;;;;;16.24;79.61;94674.53;1547425;90;21141;-56
2022/09/01 09:24:48;;;;;;;11.33;4.87;;;;;;;16.25;79.80;94671.89;1572066;89;21557;-56
2022/09/01 09:27:20;;;;;;;9.40;4.20;;;;;;;16.28;79.95;94668.78;1572498;89;21211;-55
2022/09/01 09:29:53;;;;;;;6.80;4.12;;;;;;;16.26;79.52;94672.03;1576828;89;21453;-59
2022/09/01 09:32:21;;;;;;;8.33;4.77;;;;;;;16.18;79.65;94676.48;1567742;88;21825;-56
2022/09/01 09:34:49;;;;;;;8.53;4.17;;;;;;;16.18;79.65;94676.48;1583269;89;21489;-59
2022/09/01 09:37:25;;;;;;;5.70;3.62;;;;;;;16.15;78.97;94684.39;1558672;89;21077;-58
2022/09/01 09:40:24;;;;;;;6.47;3.75;;;;;;;16.11;79.13;94690.75;1565421;89;21585;-57
2022/09/01 09:43:00;;;;;;;12.07;5.08;;;;;;;16.07;79.38;94692.22;1550749;89;22040;-56
2022/09/01 09:45:38;;;;;;;5.33;3.70;;;;;;;16.05;79.29;94697.47;1556427;89;21248;-57
2022/09/01 09:48:26;;;;;;;5.45;4.15;;;;;;;16.03;78.85;94697.97;1565144;90;21532;-57
2022/09/01 09:50:54;;;;;;;7.45;3.50;;;;;;;16.00;78.85;94698.94;1569521;90;21081;-56
2022/09/01 09:53:27;;;;;;;6.42;4.22;;;;;;;15.98;79.06;94697.88;1565190;88;21081;-57
2022/09/01 09:56:06;;;;;;;6.47;4.08;;;;;;;16.03;79.56;94697.97;1566774;88;21143;-56
2022/09/01 09:58:39;;;;;;;3.65;3.10;;;;;;;16.13;79.50;94697.22;1565601;90;21918;-57
2022/09/01 10:01:24;;;;;;;6.28;4.08;;;;;;;16.19;80.48;94698.83;1568434;89;21993;-58
2022/09/01 10:03:54;;;;;;;7.00;4.05;;;;;;;16.26;80.84;94695.63;1566484;89;21115;-56
2022/09/01 10:06:40;;;;;;;6.08;4.37;;;;;;;16.35;81.08;94686.57;1539432;89;21098;-55
2022/09/01 10:09:18;;;;;;;11.22;5.22;;;;;;;16.43;80.67;94692.48;1562168;90;21643;-59
2022/09/01 10:11:50;;;;;;;6.05;4.35;;;;;;;16.55;80.00;94695.54;1580961;90;21193;-56
2022/09/01 10:14:31;;;;;;;5.35;4.08;;;;;;;16.67;79.63;94693.02;1566850;90;28984;-58
2022/09/01 10:17:02;;;;;;;6.37;5.12;;;;;;;16.70;78.63;94696.23;1561766;90;21513;-58
2022/09/01 10:19:32;;;;;;;19.25;9.15;;;;;;;16.65;78.74;94698.30;1537356;90;21095;-61
2022/09/01 10:21:59;;;;;;;28.77;12.18;;;;;;;16.57;78.70;94711.84;1550715;90;21226;-56
2022/09/01 10:24:36;;;;;;;10.65;6.47;;;;;;;16.50;78.74;94715.66;1577011;89;21786;-58
2022/09/01 10:27:20;;;;;;;23.87;11.00;;;;;;;16.40;78.62;94708.72;1586155;90;21088;-56
2022/09/01 10:30:12;;;;;;;28.23;11.93;;;;;;;16.33;78.35;94704.95;1547550;90;21156;-56
2022/09/01 10:32:50;;;;;;;20.20;11.48;;;;;;;16.32;78.65;94707.56;1570694;89;21151;-56
2022/09/01 10:35:28;;;;;;;12.18;7.92;;;;;;;16.26;78.92;94706.73;1560141;90;21064;-58
2022/09/01 10:37:59;;;;;;;14.50;7.25;;;;;;;16.22;79.13;94706.79;1569694;89;21785;-58
2022/09/01 10:40:32;;;;;;;9.05;5.60;;;;;;;16.21;79.26;94711.59;1550457;89;21179;-55
2022/09/01 10:43:20;;;;;;;10.38;6.67;;;;;;;16.20;79.56;94705.91;1566659;89;21975;-55
2022/09/01 10:45:48;;;;;;;14.70;6.75;;;;;;;16.21;79.71;94701.10;1546153;91;21088;-58
2022/09/01 10:48:29;;;;;;;9.58;5.95;;;;;;;16.20;79.18;94697.58;1562210;90;21107;-57
2022/09/01 10:51:17;;;;;;;7.92;5.40;;;;;;;16.19;79.71;94700.82;1540170;90;21088;-54
2022/09/01 10:53:47;;;;;;;8.65;5.35;;;;;;;16.14;80.07;94702.30;1533805;90;21413;-55
2022/09/01 10:56:19;;;;;;;10.48;5.85;;;;;;;16.08;81.07;94702.07;1562754;89;21112;-54
2022/09/01 10:58:57;;;;;;;6.58;4.97;;;;;;;16.06;81.64;94705.32;1576406;89;21117;-56
2022/09/01 11:01:48;;;;;;;6.53;4.87;;;;;;;16.02;81.26;94710.31;1562316;89;21726;-54
2022/09/01 11:04:23;;;;;;;9.20;4.60;;;;;;;15.99;80.35;94708.52;1564753;89;21458;-56
2022/09/01 11:07:07;;;;;;;8.50;4.78;;;;;;;16.08;79.78;94708.38;1568912;89;21146;-57
2022/09/01 11:09:43;;;;;;;8.20;5.00;;;;;;;16.10;80.39;94701.72;1580455;88;21711;-55
2022/09/01 11:12:28;;;;;;;11.73;4.80;;;;;;;16.14;81.07;94698.13;1572047;90;21545;-54
2022/09/01 11:15:01;;;;;;;6.60;4.50;;;;;;;16.17;81.75;94697.77;1568433;89;21081;-58
2022/09/01 11:17:36;;;;;;;6.67;5.37;;;;;;;16.20;81.71;94692.63;1582505;88;21779;-55
2022/09/01 11:20:09;;;;;;;6.85;4.62;;;;;;;16.26;81.36;94688.69;1579359;89;21669;-59
2022/09/01 11:22:58;;;;;;;10.93;5.22;;;;;;;16.33;80.75;94696.63;1558531;89;21149;-55
2022/09/01 11:25:42;;;;;;;10.05;5.15;;;;;;;16.38;80.87;94694.56;1567221;90;21144;-57
2022/09/01 11:28:30;;;;;;;7.72;4.72;;;;;;;16.38;80.81;94695.31;1579979;89;21227;-55
2022/09/01 11:31:09;;;;;;;11.90;4.85;;;;;;;16.37;81.36;94704.14;1565152;90;21224;-59
2022/09/01 11:34:05;;;;;;;6.85;4.90;;;;;;;16.39;80.94;94708.59;1578683;89;21865;-61
2022/09/01 11:36:46;;;;;;;13.20;5.53;;;;;;;16.39;80.93;94707.20;1557925;90;21050;-56
2022/09/01 11:39:21;;;;;;;8.35;4.33;;;;;;;16.41;81.25;94706.86;1548821;90;21163;-58
2022/09/01 11:42:26;;;;;;;11.28;5.10;;;;;;;16.40;81.61;94708.08;1555003;90;21024;-61
2022/09/01 11:45:17;;;;;;;7.33;3.70;;;;;;;16.36;82.20;94710.95;1568033;90;21235;-60
2022/09/01 11:47:49;;;;;;;7.72;3.35;;;;;;;16.35;81.96;94713.59;1547322;91;21157;-59
2022/09/01 11:50:22;;;;;;;6.30;3.60;;;;;;;16.40;80.19;94709.47;1579286;89;21077;-60
2022/09/01 11:53:08;;;;;;;6.97;3.62;;;;;;;16.44;79.68;94706.50;1557086;90;20970;-56
2022/09/01 11:55:44;;;;;;;6.47;3.30;;;;;;;16.50;80.09;94700.38;1568332;90;21076;-58
2022/09/01 11:58:33;;;;;;;4.53;3.60;;;;;;;16.50;80.26;94698.99;1569344;90;21270;-60
2022/09/01 12:01:32;;;;;;;3.45;2.80;;;;;;;16.48;80.00;94697.33;1575955;89;21191;-58
2022/09/01 12:04:21;;;;;;;5.22;3.50;;;;;;;16.45;80.14;94694.14;1578226;89;21088;-58